sensor_id;sensor_type;location;lat;lon;timestamp;pressure;altitude;pressure_sealevel;temperature;humidity
29215;BME280;16252;49.816;7.964;2023-04-15T00:00:56;99125.19;;;9.71;46.51
29215;BME280;16252;49.816;7.964;2023-04-15T00:03:22;99107.41;;;9.60;46.32
29215;BME280;16252;49.816;7.964;2023-04-15T00:05:47;99103.69;;;9.51;46.51
29215;BME280;16252;49.816;7.964;2023-04-15T00:08:12;99104.81;;;9.49;46.71
29215;BME280;16252;49.816;7.964;2023-04-15T00:10:38;99115.50;;;9.49;46.67
29215;BME280;16252;49.816;7.964;2023-04-15T00:13:03;99116.59;;;9.46;46.46
29215;BME280;16252;49.816;7.964;2023-04-15T00:15:28;99086.28;;;9.26;46.37
29215;BME280;16252;49.816;7.964;2023-04-15T00:17:53;99122.94;;;9.45;46.44
29215;BME280;16252;49.816;7.964;2023-04-15T00:20:19;99105.28;;;9.33;46.41
29215;BME280;16252;49.816;7.964;2023-04-15T00:22:44;99111.19;;;9.37;46.49
29215;BME280;16252;49.816;7.964;2023-04-15T00:25:10;99083.56;;;9.17;46.58
29215;BME280;16252;49.816;7.964;2023-04-15T00:27:35;99107.78;;;9.25;46.52
29215;BME280;16252;49.816;7.964;2023-04-15T00:30:01;99112.84;;;9.28;46.71
29215;BME280;16252;49.816;7.964;2023-04-15T00:32:28;99108.22;;;9.30;47.03
29215;BME280;16252;49.816;7.964;2023-04-15T00:34:53;99091.56;;;9.17;46.98
29215;BME280;16252;49.816;7.964;2023-04-15T00:37:18;99109.72;;;9.23;46.96
29215;BME280;16252;49.816;7.964;2023-04-15T00:39:44;99101.53;;;9.15;46.66
29215;BME280;16252;49.816;7.964;2023-04-15T00:42:09;99090.59;;;8.97;46.78
29215;BME280;16252;49.816;7.964;2023-04-15T00:44:35;99085.47;;;8.94;46.44
29215;BME280;16252;49.816;7.964;2023-04-15T00:47:00;99120.25;;;9.03;46.66
29215;BME280;16252;49.816;7.964;2023-04-15T00:49:29;99114.81;;;8.94;46.63
29215;BME280;16252;49.816;7.964;2023-04-15T00:51:54;99090.31;;;8.79;46.64
29215;BME280;16252;49.816;7.964;2023-04-15T00:54:20;99110.03;;;8.87;46.85
29215;BME280;16252;49.816;7.964;2023-04-15T00:56:46;99115.25;;;8.78;47.08
29215;BME280;16252;49.816;7.964;2023-04-15T00:59:13;99090.22;;;8.69;47.38
29215;BME280;16252;49.816;7.964;2023-04-15T01:01:39;99096.75;;;8.65;47.45
29215;BME280;16252;49.816;7.964;2023-04-15T01:04:05;99104.78;;;8.65;47.30
29215;BME280;16252;49.816;7.964;2023-04-15T01:06:31;99102.81;;;8.67;47.27
29215;BME280;16252;49.816;7.964;2023-04-15T01:08:58;99120.97;;;8.73;47.23
29215;BME280;16252;49.816;7.964;2023-04-15T01:11:24;99110.47;;;8.60;47.44
29215;BME280;16252;49.816;7.964;2023-04-15T01:13:51;99087.00;;;8.54;47.57
29215;BME280;16252;49.816;7.964;2023-04-15T01:16:17;99112.28;;;8.71;47.76
29215;BME280;16252;49.816;7.964;2023-04-15T01:18:43;99112.41;;;8.70;47.42
29215;BME280;16252;49.816;7.964;2023-04-15T01:21:09;99112.41;;;8.70;47.51
29215;BME280;16252;49.816;7.964;2023-04-15T01:23:35;99113.13;;;8.72;47.38
29215;BME280;16252;49.816;7.964;2023-04-15T01:26:02;99116.88;;;8.69;47.31
29215;BME280;16252;49.816;7.964;2023-04-15T01:28:28;99093.16;;;8.55;47.15
29215;BME280;16252;49.816;7.964;2023-04-15T01:31:11;99120.13;;;8.73;47.67
29215;BME280;16252;49.816;7.964;2023-04-15T01:33:37;99084.59;;;8.40;47.27
29215;BME280;16252;49.816;7.964;2023-04-15T01:36:04;99094.50;;;8.38;47.67
29215;BME280;16252;49.816;7.964;2023-04-15T01:38:30;99115.63;;;8.41;47.71
29215;BME280;16252;49.816;7.964;2023-04-15T01:40:56;99118.06;;;8.44;47.74
29215;BME280;16252;49.816;7.964;2023-04-15T01:43:22;99074.47;;;8.11;47.84
29215;BME280;16252;49.816;7.964;2023-04-15T01:45:47;99126.41;;;8.39;47.89
29215;BME280;16252;49.816;7.964;2023-04-15T01:48:13;99092.16;;;8.23;47.72
29215;BME280;16252;49.816;7.964;2023-04-15T01:50:38;99085.25;;;8.21;47.81
29215;BME280;16252;49.816;7.964;2023-04-15T01:53:03;99103.75;;;8.22;47.93
29215;BME280;16252;49.816;7.964;2023-04-15T01:55:29;99101.09;;;8.22;47.88
29215;BME280;16252;49.816;7.964;2023-04-15T01:57:55;99091.78;;;8.17;47.82
29215;BME280;16252;49.816;7.964;2023-04-15T02:00:21;99114.41;;;8.34;47.75
29215;BME280;16252;49.816;7.964;2023-04-15T02:02:47;99103.38;;;8.27;47.53
29215;BME280;16252;49.816;7.964;2023-04-15T02:05:12;99112.94;;;8.30;47.32
29215;BME280;16252;49.816;7.964;2023-04-15T02:07:37;99110.31;;;8.18;47.58
29215;BME280;16252;49.816;7.964;2023-04-15T02:10:03;99076.91;;;7.92;47.26
29215;BME280;16252;49.816;7.964;2023-04-15T02:12:28;99117.09;;;8.11;47.38
29215;BME280;16252;49.816;7.964;2023-04-15T02:14:54;99102.09;;;7.99;47.37
29215;BME280;16252;49.816;7.964;2023-04-15T02:17:20;99101.72;;;7.92;47.48
29215;BME280;16252;49.816;7.964;2023-04-15T02:19:45;99086.38;;;7.85;47.50
29215;BME280;16252;49.816;7.964;2023-04-15T02:22:10;99106.09;;;7.93;47.58
29215;BME280;16252;49.816;7.964;2023-04-15T02:24:42;99098.84;;;7.84;47.72
29215;BME280;16252;49.816;7.964;2023-04-15T02:27:07;99080.06;;;7.74;47.89
29215;BME280;16252;49.816;7.964;2023-04-15T02:29:32;99103.81;;;7.89;47.77
29215;BME280;16252;49.816;7.964;2023-04-15T02:31:58;99116.28;;;7.88;47.83
29215;BME280;16252;49.816;7.964;2023-04-15T02:34:23;99084.06;;;7.69;47.71
29215;BME280;16252;49.816;7.964;2023-04-15T02:36:48;99087.09;;;7.64;47.73
29215;BME280;16252;49.816;7.964;2023-04-15T02:39:15;99052.47;;;7.30;47.80
29215;BME280;16252;49.816;7.964;2023-04-15T02:41:42;99117.00;;;7.68;47.84
29215;BME280;16252;49.816;7.964;2023-04-15T02:44:11;99117.84;;;7.68;47.97
29215;BME280;16252;49.816;7.964;2023-04-15T02:46:37;99089.28;;;7.48;47.72
29215;BME280;16252;49.816;7.964;2023-04-15T02:49:02;99105.09;;;7.49;47.83
29215;BME280;16252;49.816;7.964;2023-04-15T02:51:29;99108.41;;;7.53;48.24
29215;BME280;16252;49.816;7.964;2023-04-15T02:53:55;99123.78;;;7.60;47.90
29215;BME280;16252;49.816;7.964;2023-04-15T02:56:20;99125.09;;;7.55;47.96
29215;BME280;16252;49.816;7.964;2023-04-15T02:58:47;99093.38;;;7.41;47.89
29215;BME280;16252;49.816;7.964;2023-04-15T03:01:14;99117.56;;;7.49;48.15
29215;BME280;16252;49.816;7.964;2023-04-15T03:03:40;99111.91;;;7.42;48.21
29215;BME280;16252;49.816;7.964;2023-04-15T03:06:05;99130.63;;;7.52;48.39
29215;BME280;16252;49.816;7.964;2023-04-15T03:08:30;99127.50;;;7.47;48.25
29215;BME280;16252;49.816;7.964;2023-04-15T03:10:57;99101.72;;;7.36;48.79
29215;BME280;16252;49.816;7.964;2023-04-15T03:13:24;99094.31;;;7.28;48.64
29215;BME280;16252;49.816;7.964;2023-04-15T03:15:50;99102.69;;;7.35;48.41
29215;BME280;16252;49.816;7.964;2023-04-15T03:18:16;99121.47;;;7.45;48.50
29215;BME280;16252;49.816;7.964;2023-04-15T03:20:41;99115.66;;;7.40;48.40
29215;BME280;16252;49.816;7.964;2023-04-15T03:23:06;99115.38;;;7.31;48.52
29215;BME280;16252;49.816;7.964;2023-04-15T03:25:31;99120.97;;;7.40;48.42
29215;BME280;16252;49.816;7.964;2023-04-15T03:27:57;99122.25;;;7.34;48.71
29215;BME280;16252;49.816;7.964;2023-04-15T03:30:22;99119.75;;;7.32;48.58
29215;BME280;16252;49.816;7.964;2023-04-15T03:32:47;99108.25;;;7.32;48.30
29215;BME280;16252;49.816;7.964;2023-04-15T03:35:13;99115.38;;;7.31;48.16
29215;BME280;16252;49.816;7.964;2023-04-15T03:37:38;99118.16;;;7.30;48.10
29215;BME280;16252;49.816;7.964;2023-04-15T03:40:04;99083.28;;;7.10;47.95
29215;BME280;16252;49.816;7.964;2023-04-15T03:42:29;99072.13;;;6.94;48.41
29215;BME280;16252;49.816;7.964;2023-04-15T03:44:55;99100.22;;;7.09;48.53
29215;BME280;16252;49.816;7.964;2023-04-15T03:47:20;99115.81;;;7.14;48.46
29215;BME280;16252;49.816;7.964;2023-04-15T03:49:45;99116.88;;;7.11;48.52
29215;BME280;16252;49.816;7.964;2023-04-15T03:52:10;99109.38;;;7.05;48.64
29215;BME280;16252;49.816;7.964;2023-04-15T03:54:36;99125.75;;;7.12;48.63
29215;BME280;16252;49.816;7.964;2023-04-15T03:57:01;99104.03;;;6.94;48.59
29215;BME280;16252;49.816;7.964;2023-04-15T03:59:26;99122.94;;;7.02;48.62
29215;BME280;16252;49.816;7.964;2023-04-15T04:01:51;99117.25;;;7.07;48.64
29215;BME280;16252;49.816;7.964;2023-04-15T04:04:17;99117.38;;;7.05;48.66
29215;BME280;16252;49.816;7.964;2023-04-15T04:06:42;99137.22;;;7.12;48.52
29215;BME280;16252;49.816;7.964;2023-04-15T04:09:07;99123.75;;;7.03;48.52
29215;BME280;16252;49.816;7.964;2023-04-15T04:11:33;99111.78;;;6.97;48.67
29215;BME280;16252;49.816;7.964;2023-04-15T04:13:58;99124.75;;;7.02;49.00
29215;BME280;16252;49.816;7.964;2023-04-15T04:16:23;99107.28;;;6.86;48.88
29215;BME280;16252;49.816;7.964;2023-04-15T04:18:48;99111.72;;;6.86;49.03
29215;BME280;16252;49.816;7.964;2023-04-15T04:21:14;99146.97;;;7.01;48.86
29215;BME280;16252;49.816;7.964;2023-04-15T04:23:40;99125.66;;;6.89;49.01
29215;BME280;16252;49.816;7.964;2023-04-15T04:26:05;99113.88;;;6.81;48.50
29215;BME280;16252;49.816;7.964;2023-04-15T04:28:30;99140.41;;;6.93;48.58
29215;BME280;16252;49.816;7.964;2023-04-15T04:30:56;99156.88;;;6.99;48.46
29215;BME280;16252;49.816;7.964;2023-04-15T04:33:21;99127.19;;;6.81;48.29
29215;BME280;16252;49.816;7.964;2023-04-15T04:35:46;99133.56;;;6.78;48.54
29215;BME280;16252;49.816;7.964;2023-04-15T04:38:12;99106.56;;;6.60;48.40
29215;BME280;16252;49.816;7.964;2023-04-15T04:40:37;99130.03;;;6.66;48.70
29215;BME280;16252;49.816;7.964;2023-04-15T04:43:03;99113.41;;;6.51;48.83
29215;BME280;16252;49.816;7.964;2023-04-15T04:45:28;99138.13;;;6.65;48.76
29215;BME280;16252;49.816;7.964;2023-04-15T04:47:54;99115.94;;;6.53;48.90
29215;BME280;16252;49.816;7.964;2023-04-15T04:50:19;99121.38;;;6.51;48.88
29215;BME280;16252;49.816;7.964;2023-04-15T04:52:45;99159.66;;;6.73;48.98
29215;BME280;16252;49.816;7.964;2023-04-15T04:55:10;99122.13;;;6.54;48.84
29215;BME280;16252;49.816;7.964;2023-04-15T04:57:35;99141.25;;;6.59;48.96
29215;BME280;16252;49.816;7.964;2023-04-15T05:00:02;99141.00;;;6.62;48.87
29215;BME280;16252;49.816;7.964;2023-04-15T05:02:28;99119.66;;;6.50;49.09
29215;BME280;16252;49.816;7.964;2023-04-15T05:04:54;99131.31;;;6.61;49.10
29215;BME280;16252;49.816;7.964;2023-04-15T05:07:19;99151.81;;;6.71;49.33
29215;BME280;16252;49.816;7.964;2023-04-15T05:09:45;99119.81;;;6.49;49.04
29215;BME280;16252;49.816;7.964;2023-04-15T05:12:11;99142.34;;;6.67;49.10
29215;BME280;16252;49.816;7.964;2023-04-15T05:14:39;99136.28;;;6.65;49.13
29215;BME280;16252;49.816;7.964;2023-04-15T05:17:04;99148.91;;;6.75;49.29
29215;BME280;16252;49.816;7.964;2023-04-15T05:19:30;99119.97;;;6.59;49.44
29215;BME280;16252;49.816;7.964;2023-04-15T05:21:55;99143.13;;;6.81;49.42
29215;BME280;16252;49.816;7.964;2023-04-15T05:24:20;99150.66;;;6.87;49.39
29215;BME280;16252;49.816;7.964;2023-04-15T05:26:46;99146.53;;;6.83;49.35
29215;BME280;16252;49.816;7.964;2023-04-15T05:29:11;99124.00;;;6.76;49.53
29215;BME280;16252;49.816;7.964;2023-04-15T05:31:37;99165.34;;;7.04;49.69
29215;BME280;16252;49.816;7.964;2023-04-15T05:34:02;99166.66;;;6.98;49.72
29215;BME280;16252;49.816;7.964;2023-04-15T05:36:27;99166.22;;;7.04;49.68
29215;BME280;16252;49.816;7.964;2023-04-15T05:38:53;99147.09;;;6.99;49.63
29215;BME280;16252;49.816;7.964;2023-04-15T05:41:18;99143.69;;;6.97;49.84
29215;BME280;16252;49.816;7.964;2023-04-15T05:43:43;99168.31;;;7.12;49.83
29215;BME280;16252;49.816;7.964;2023-04-15T05:46:09;99165.63;;;7.12;49.90
29215;BME280;16252;49.816;7.964;2023-04-15T05:48:34;99179.22;;;7.20;49.87
29215;BME280;16252;49.816;7.964;2023-04-15T05:51:00;99151.94;;;7.05;50.01
29215;BME280;16252;49.816;7.964;2023-04-15T05:53:25;99159.34;;;7.13;49.93
29215;BME280;16252;49.816;7.964;2023-04-15T05:55:50;99158.16;;;7.17;49.83
29215;BME280;16252;49.816;7.964;2023-04-15T05:58:16;99187.84;;;7.35;50.23
29215;BME280;16252;49.816;7.964;2023-04-15T06:00:41;99166.31;;;7.27;49.95
29215;BME280;16252;49.816;7.964;2023-04-15T06:03:06;99170.91;;;7.36;49.93
29215;BME280;16252;49.816;7.964;2023-04-15T06:05:32;99175.63;;;7.44;50.25
29215;BME280;16252;49.816;7.964;2023-04-15T06:07:57;99154.09;;;7.35;50.17
29215;BME280;16252;49.816;7.964;2023-04-15T06:10:22;99166.47;;;7.48;50.14
29215;BME280;16252;49.816;7.964;2023-04-15T06:12:48;99132.19;;;7.32;50.37
29215;BME280;16252;49.816;7.964;2023-04-15T06:15:13;99161.75;;;7.51;50.20
29215;BME280;16252;49.816;7.964;2023-04-15T06:17:38;99185.97;;;7.71;50.41
29215;BME280;16252;49.816;7.964;2023-04-15T06:20:04;99141.28;;;7.52;50.38
29215;BME280;16252;49.816;7.964;2023-04-15T06:22:29;99140.00;;;7.57;50.46
29215;BME280;16252;49.816;7.964;2023-04-15T06:24:55;99171.72;;;7.83;50.64
29215;BME280;16252;49.816;7.964;2023-04-15T06:27:20;99178.63;;;7.86;50.62
29215;BME280;16252;49.816;7.964;2023-04-15T06:29:47;99185.16;;;8.04;50.81
29215;BME280;16252;49.816;7.964;2023-04-15T06:32:12;99186.97;;;8.15;50.95
29215;BME280;16252;49.816;7.964;2023-04-15T06:34:37;99161.19;;;8.15;51.10
29215;BME280;16252;49.816;7.964;2023-04-15T06:37:03;99183.47;;;8.48;50.92
29215;BME280;16252;49.816;7.964;2023-04-15T06:39:28;99174.84;;;8.56;50.88
29215;BME280;16252;49.816;7.964;2023-04-15T06:41:53;99162.47;;;8.66;50.67
29215;BME280;16252;49.816;7.964;2023-04-15T06:44:18;99142.00;;;8.66;50.74
29215;BME280;16252;49.816;7.964;2023-04-15T06:46:44;99133.72;;;8.70;50.76
29215;BME280;16252;49.816;7.964;2023-04-15T06:49:09;99157.78;;;8.90;50.75
29215;BME280;16252;49.816;7.964;2023-04-15T06:51:35;99184.00;;;9.18;50.90
29215;BME280;16252;49.816;7.964;2023-04-15T06:54:01;99107.25;;;8.78;50.93
29215;BME280;16252;49.816;7.964;2023-04-15T06:56:30;99197.34;;;9.39;51.04
29215;BME280;16252;49.816;7.964;2023-04-15T06:58:55;99148.91;;;9.22;51.18
29215;BME280;16252;49.816;7.964;2023-04-15T07:01:21;99179.56;;;9.49;51.14
29215;BME280;16252;49.816;7.964;2023-04-15T07:03:46;99188.38;;;9.61;51.24
29215;BME280;16252;49.816;7.964;2023-04-15T07:06:11;99161.78;;;9.59;51.01
29215;BME280;16252;49.816;7.964;2023-04-15T07:08:37;99164.78;;;9.66;50.94
29215;BME280;16252;49.816;7.964;2023-04-15T07:11:03;99165.25;;;9.71;51.26
29215;BME280;16252;49.816;7.964;2023-04-15T07:13:30;99185.06;;;9.99;51.41
29215;BME280;16252;49.816;7.964;2023-04-15T07:15:55;99192.69;;;10.04;51.14
29215;BME280;16252;49.816;7.964;2023-04-15T07:18:21;99171.59;;;10.01;51.37
29215;BME280;16252;49.816;7.964;2023-04-15T07:20:46;99182.50;;;10.18;51.38
29215;BME280;16252;49.816;7.964;2023-04-15T07:23:12;99142.63;;;10.06;51.48
29215;BME280;16252;49.816;7.964;2023-04-15T07:25:37;99123.34;;;10.02;51.38
29215;BME280;16252;49.816;7.964;2023-04-15T07:28:02;99157.84;;;10.36;51.27
29215;BME280;16252;49.816;7.964;2023-04-15T07:30:27;99177.00;;;10.60;51.12
29215;BME280;16252;49.816;7.964;2023-04-15T07:32:53;99177.19;;;10.69;51.27
29215;BME280;16252;49.816;7.964;2023-04-15T07:35:18;99179.31;;;10.84;51.44
29215;BME280;16252;49.816;7.964;2023-04-15T07:37:45;99163.97;;;10.87;51.36
29215;BME280;16252;49.816;7.964;2023-04-15T07:40:11;99154.84;;;10.99;51.43
29215;BME280;16252;49.816;7.964;2023-04-15T07:42:36;99156.78;;;11.16;51.10
29215;BME280;16252;49.816;7.964;2023-04-15T07:45:02;99143.28;;;11.18;51.12
29215;BME280;16252;49.816;7.964;2023-04-15T07:47:27;99163.69;;;11.48;51.18
29215;BME280;16252;49.816;7.964;2023-04-15T07:49:52;99086.03;;;11.19;50.89
29215;BME280;16252;49.816;7.964;2023-04-15T07:52:18;99128.56;;;11.51;51.11
29215;BME280;16252;49.816;7.964;2023-04-15T07:54:44;99190.06;;;12.09;50.95
29215;BME280;16252;49.816;7.964;2023-04-15T07:57:09;99147.78;;;12.03;51.21
29215;BME280;16252;49.816;7.964;2023-04-15T07:59:35;99176.56;;;12.39;51.30
29215;BME280;16252;49.816;7.964;2023-04-15T08:02:01;99189.22;;;12.74;51.23
29215;BME280;16252;49.816;7.964;2023-04-15T08:04:26;99109.56;;;12.47;51.04
29215;BME280;16252;49.816;7.964;2023-04-15T08:06:52;99172.75;;;13.05;50.97
29215;BME280;16252;49.816;7.964;2023-04-15T08:09:17;99177.06;;;13.33;50.24
29215;BME280;16252;49.816;7.964;2023-04-15T08:11:43;99152.94;;;13.41;50.48
29215;BME280;16252;49.816;7.964;2023-04-15T08:14:08;99130.84;;;13.48;50.25
29215;BME280;16252;49.816;7.964;2023-04-15T08:16:34;99156.94;;;13.81;50.13
29215;BME280;16252;49.816;7.964;2023-04-15T08:19:00;99194.47;;;14.25;49.83
29215;BME280;16252;49.816;7.964;2023-04-15T08:21:25;99204.38;;;14.51;49.54
29215;BME280;16252;49.816;7.964;2023-04-15T08:23:52;99179.97;;;14.52;49.01
29215;BME280;16252;49.816;7.964;2023-04-15T08:26:18;99188.81;;;14.71;49.41
29215;BME280;16252;49.816;7.964;2023-04-15T08:28:44;99177.25;;;14.79;48.52
29215;BME280;16252;49.816;7.964;2023-04-15T08:31:11;99195.47;;;15.01;48.27
29215;BME280;16252;49.816;7.964;2023-04-15T08:33:36;99155.06;;;14.93;47.84
29215;BME280;16252;49.816;7.964;2023-04-15T08:36:02;99194.19;;;15.30;48.08
29215;BME280;16252;49.816;7.964;2023-04-15T08:38:28;99184.25;;;15.38;48.22
29215;BME280;16252;49.816;7.964;2023-04-15T08:40:54;99221.34;;;15.69;47.93
29215;BME280;16252;49.816;7.964;2023-04-15T08:43:22;99218.66;;;15.86;47.24
29215;BME280;16252;49.816;7.964;2023-04-15T08:45:51;99226.03;;;16.00;46.82
29215;BME280;16252;49.816;7.964;2023-04-15T08:48:17;99219.94;;;16.14;46.94
29215;BME280;16252;49.816;7.964;2023-04-15T08:50:43;99198.53;;;16.13;46.89
29215;BME280;16252;49.816;7.964;2023-04-15T08:53:10;99213.47;;;16.40;47.11
29215;BME280;16252;49.816;7.964;2023-04-15T08:55:45;99187.34;;;16.32;46.31
29215;BME280;16252;49.816;7.964;2023-04-15T08:58:12;99218.28;;;16.61;46.23
29215;BME280;16252;49.816;7.964;2023-04-15T09:00:38;99226.88;;;16.64;45.87
29215;BME280;16252;49.816;7.964;2023-04-15T09:03:04;99140.66;;;16.15;45.47
29215;BME280;16252;49.816;7.964;2023-04-15T09:05:37;99195.88;;;16.52;45.65
29215;BME280;16252;49.816;7.964;2023-04-15T09:08:03;99212.44;;;16.49;45.45
29215;BME280;16252;49.816;7.964;2023-04-15T09:10:29;99236.19;;;16.62;45.08
29215;BME280;16252;49.816;7.964;2023-04-15T09:12:55;99236.19;;;16.62;45.22
29215;BME280;16252;49.816;7.964;2023-04-15T09:15:23;99220.84;;;16.54;45.51
29215;BME280;16252;49.816;7.964;2023-04-15T09:17:49;99217.63;;;16.51;45.35
29215;BME280;16252;49.816;7.964;2023-04-15T09:20:15;99201.97;;;16.46;44.88
29215;BME280;16252;49.816;7.964;2023-04-15T09:22:42;99251.50;;;16.78;45.04
29215;BME280;16252;49.816;7.964;2023-04-15T09:27:56;99246.81;;;17.03;45.35
29215;BME280;16252;49.816;7.964;2023-04-15T09:30:22;99249.25;;;17.21;44.92
29215;BME280;16252;49.816;7.964;2023-04-15T09:35:14;99183.22;;;17.61;45.69
29215;BME280;16252;49.816;7.964;2023-04-15T09:37:39;99233.69;;;18.30;44.48
29215;BME280;16252;49.816;7.964;2023-04-15T09:40:04;99249.09;;;18.74;44.44
29215;BME280;16252;49.816;7.964;2023-04-15T09:42:30;99222.59;;;18.84;43.45
29215;BME280;16252;49.816;7.964;2023-04-15T09:45:07;99215.25;;;18.99;43.09
29215;BME280;16252;49.816;7.964;2023-04-15T09:47:33;99220.00;;;19.12;42.74
29215;BME280;16252;49.816;7.964;2023-04-15T09:49:59;99253.03;;;19.37;42.68
29215;BME280;16252;49.816;7.964;2023-04-15T09:52:25;99205.28;;;19.21;42.27
29215;BME280;16252;49.816;7.964;2023-04-15T09:54:53;99251.34;;;19.73;42.43
29215;BME280;16252;49.816;7.964;2023-04-15T09:57:21;99242.34;;;20.00;42.69
29215;BME280;16252;49.816;7.964;2023-04-15T09:59:47;99230.53;;;20.36;42.08
29215;BME280;16252;49.816;7.964;2023-04-15T10:02:13;99225.72;;;20.73;41.51
29215;BME280;16252;49.816;7.964;2023-04-15T10:04:41;99238.06;;;21.24;41.04
29215;BME280;16252;49.816;7.964;2023-04-15T10:07:08;99236.06;;;21.46;40.44
29215;BME280;16252;49.816;7.964;2023-04-15T10:09:37;99240.06;;;21.63;39.38
29215;BME280;16252;49.816;7.964;2023-04-15T10:12:03;99250.78;;;21.78;39.67
29215;BME280;16252;49.816;7.964;2023-04-15T10:14:32;99244.50;;;21.91;39.26
29215;BME280;16252;49.816;7.964;2023-04-15T10:17:00;99240.31;;;22.08;38.48
29215;BME280;16252;49.816;7.964;2023-04-15T10:19:26;99260.41;;;22.47;38.91
29215;BME280;16252;49.816;7.964;2023-04-15T10:21:52;99255.94;;;22.79;38.09
29215;BME280;16252;49.816;7.964;2023-04-15T10:24:18;99229.59;;;23.11;37.94
29215;BME280;16252;49.816;7.964;2023-04-15T10:26:44;99222.88;;;23.52;37.02
29215;BME280;16252;49.816;7.964;2023-04-15T10:29:09;99229.44;;;24.01;36.54
29215;BME280;16252;49.816;7.964;2023-04-15T10:31:35;99219.50;;;24.32;35.75
29215;BME280;16252;49.816;7.964;2023-04-15T10:34:02;99246.22;;;24.74;35.24
29215;BME280;16252;49.816;7.964;2023-04-15T10:36:31;99200.03;;;24.65;34.49
29215;BME280;16252;49.816;7.964;2023-04-15T10:38:56;99231.41;;;25.00;33.84
29215;BME280;16252;49.816;7.964;2023-04-15T10:41:26;99262.41;;;25.30;34.08
29215;BME280;16252;49.816;7.964;2023-04-15T10:43:59;99225.44;;;25.21;34.08
29215;BME280;16252;49.816;7.964;2023-04-15T10:46:38;99271.03;;;25.46;33.86
29215;BME280;16252;49.816;7.964;2023-04-15T10:49:15;99268.00;;;25.36;33.07
29215;BME280;16252;49.816;7.964;2023-04-15T10:51:43;99252.13;;;25.07;32.49
29215;BME280;16252;49.816;7.964;2023-04-15T10:57:36;99271.75;;;24.86;32.22
29215;BME280;16252;49.816;7.964;2023-04-15T11:02:19;99256.88;;;24.38;31.75
29215;BME280;16252;49.816;7.964;2023-04-15T11:04:51;99267.66;;;24.33;32.15
29215;BME280;16252;49.816;7.964;2023-04-15T11:07:33;99192.19;;;23.82;33.61
29215;BME280;16252;49.816;7.964;2023-04-15T11:09:58;99229.94;;;23.92;31.18
29215;BME280;16252;49.816;7.964;2023-04-15T11:12:33;99230.84;;;23.86;30.63
29215;BME280;16252;49.816;7.964;2023-04-15T11:14:59;99229.88;;;23.73;30.12
29215;BME280;16252;49.816;7.964;2023-04-15T11:17:27;99241.00;;;23.72;29.54
29215;BME280;16252;49.816;7.964;2023-04-15T11:19:53;99270.06;;;23.59;29.54
29215;BME280;16252;49.816;7.964;2023-04-15T11:22:18;99297.44;;;23.46;29.67
29215;BME280;16252;49.816;7.964;2023-04-15T11:24:47;99283.88;;;23.26;29.96
29215;BME280;16252;49.816;7.964;2023-04-15T11:27:23;99276.66;;;23.00;31.65
29215;BME280;16252;49.816;7.964;2023-04-15T11:29:49;99246.97;;;22.52;29.69
29215;BME280;16252;49.816;7.964;2023-04-15T11:32:14;99239.69;;;22.26;30.04
29215;BME280;16252;49.816;7.964;2023-04-15T11:34:39;99265.44;;;22.30;30.04
29215;BME280;16252;49.816;7.964;2023-04-15T11:37:05;99289.16;;;22.29;30.63
29215;BME280;16252;49.816;7.964;2023-04-15T11:39:31;99261.03;;;21.89;30.76
29215;BME280;16252;49.816;7.964;2023-04-15T11:41:56;99298.94;;;21.97;31.29
29215;BME280;16252;49.816;7.964;2023-04-15T11:44:21;99290.56;;;21.79;31.46
29215;BME280;16252;49.816;7.964;2023-04-15T11:46:47;99268.09;;;21.50;31.36
29215;BME280;16252;49.816;7.964;2023-04-15T11:49:28;99311.66;;;21.57;32.29
29215;BME280;16252;49.816;7.964;2023-04-15T11:51:53;99279.69;;;21.17;31.34
29215;BME280;16252;49.816;7.964;2023-04-15T11:54:19;99280.91;;;21.08;31.52
29215;BME280;16252;49.816;7.964;2023-04-15T11:56:49;99304.34;;;21.09;31.64
29215;BME280;16252;49.816;7.964;2023-04-15T11:59:14;99312.88;;;21.06;31.85
29215;BME280;16252;49.816;7.964;2023-04-15T12:01:40;99287.28;;;20.87;31.88
29215;BME280;16252;49.816;7.964;2023-04-15T12:04:15;99315.81;;;21.05;32.66
29215;BME280;16252;49.816;7.964;2023-04-15T12:06:46;99302.78;;;20.87;31.78
29215;BME280;16252;49.816;7.964;2023-04-15T12:09:12;99327.63;;;20.84;31.34
29215;BME280;16252;49.816;7.964;2023-04-15T12:11:45;99335.94;;;20.75;31.46
29215;BME280;16252;49.816;7.964;2023-04-15T12:16:47;99332.72;;;20.37;30.94
29215;BME280;16252;49.816;7.964;2023-04-15T12:19:14;99307.72;;;19.99;31.11
29215;BME280;16252;49.816;7.964;2023-04-15T12:21:44;99349.16;;;20.07;30.93
29215;BME280;16252;49.816;7.964;2023-04-15T12:24:10;99352.72;;;19.86;31.12
29215;BME280;16252;49.816;7.964;2023-04-15T12:26:51;99332.28;;;19.69;31.82
29215;BME280;16252;49.816;7.964;2023-04-15T12:29:17;99361.94;;;19.70;31.26
29215;BME280;16252;49.816;7.964;2023-04-15T12:34:27;99360.53;;;19.60;31.05
29215;BME280;16252;49.816;7.964;2023-04-15T12:36:54;99353.53;;;19.51;31.35
29215;BME280;16252;49.816;7.964;2023-04-15T12:39:23;99370.47;;;19.67;31.42
29215;BME280;16252;49.816;7.964;2023-04-15T12:41:49;99360.28;;;19.55;31.56
29215;BME280;16252;49.816;7.964;2023-04-15T12:44:14;99352.00;;;19.63;31.39
29215;BME280;16252;49.816;7.964;2023-04-15T12:46:40;99366.25;;;19.65;31.58
29215;BME280;16252;49.816;7.964;2023-04-15T12:49:05;99363.25;;;19.60;31.74
29215;BME280;16252;49.816;7.964;2023-04-15T12:51:31;99369.53;;;19.60;31.55
29215;BME280;16252;49.816;7.964;2023-04-15T12:53:56;99365.06;;;19.53;31.68
29215;BME280;16252;49.816;7.964;2023-04-15T12:56:22;99392.25;;;19.59;31.78
29215;BME280;16252;49.816;7.964;2023-04-15T12:58:48;99376.38;;;19.41;31.78
29215;BME280;16252;49.816;7.964;2023-04-15T13:01:13;99360.78;;;19.28;31.63
29215;BME280;16252;49.816;7.964;2023-04-15T13:03:38;99377.88;;;19.29;32.00
29215;BME280;16252;49.816;7.964;2023-04-15T13:06:04;99392.38;;;19.36;32.05
29215;BME280;16252;49.816;7.964;2023-04-15T13:08:30;99389.38;;;19.31;32.17
29215;BME280;16252;49.816;7.964;2023-04-15T13:10:55;99373.50;;;19.13;32.10
29215;BME280;16252;49.816;7.964;2023-04-15T13:13:21;99389.88;;;19.20;32.55
29215;BME280;16252;49.816;7.964;2023-04-15T13:15:46;99384.34;;;19.13;32.85